createdAt,value
2022-07-26T00:02:00.259Z,98820.50
2022-07-26T00:04:29.667Z,98816.63
2022-07-26T00:06:57.462Z,98811.47
2022-07-26T00:09:25.497Z,98805.00
2022-07-26T00:11:53.328Z,98812.75
2022-07-26T00:14:21.308Z,98815.81
2022-07-26T00:16:49.249Z,98816.31
2022-07-26T00:19:35.606Z,98823.66
2022-07-26T00:22:22.325Z,98825.16
2022-07-26T00:25:09.946Z,98828.25
2022-07-26T00:27:38.331Z,98830.03
2022-07-26T00:30:07.746Z,98850.06
2022-07-26T00:32:36.392Z,98844.06
2022-07-26T00:35:05.282Z,98843.41
2022-07-26T00:37:34.819Z,98835.63
2022-07-26T00:40:02.731Z,98833.81
2022-07-26T00:42:30.515Z,98838.53
2022-07-26T00:44:58.770Z,98837.78
2022-07-26T00:47:27.111Z,98835.53
2022-07-26T00:49:54.918Z,98842.78
2022-07-26T00:52:22.865Z,98845.66
2022-07-26T00:54:54.589Z,98842.03
2022-07-26T00:57:23.552Z,98848.78
2022-07-26T00:59:52.236Z,98845.88
2022-07-26T01:02:20.622Z,98844.41
2022-07-26T01:04:48.442Z,98850.63
2022-07-26T01:07:16.419Z,98844.66
2022-07-26T01:09:44.556Z,98843.88
2022-07-26T01:12:13.719Z,98848.78
2022-07-26T01:14:43.325Z,98837.91
2022-07-26T01:17:11.187Z,98845.19
2022-07-26T01:19:39.335Z,98850.66
2022-07-26T01:22:14.153Z,98855.06
2022-07-26T01:24:42.509Z,98857.91
2022-07-26T01:27:10.382Z,98858.72
2022-07-26T01:29:38.211Z,98861.03
2022-07-26T01:32:07.044Z,98870.63
2022-07-26T01:34:34.875Z,98872.38
2022-07-26T01:37:04.041Z,98857.63
2022-07-26T01:39:33.369Z,98855.03
2022-07-26T01:42:01.355Z,98845.25
2022-07-26T01:44:29.154Z,98853.25
2022-07-26T01:46:56.927Z,98844.50
2022-07-26T01:49:24.735Z,98851.50
2022-07-26T01:51:52.600Z,98846.34
2022-07-26T01:54:22.430Z,98850.94
2022-07-26T01:56:53.963Z,98860.53
2022-07-26T01:59:22.097Z,98850.72
2022-07-26T02:01:49.885Z,98838.81
2022-07-26T02:04:31.675Z,98846.88
2022-07-26T02:06:59.657Z,98841.38
2022-07-26T02:09:27.906Z,98846.59
2022-07-26T02:12:04.410Z,98841.47
2022-07-26T02:14:32.489Z,98853.44
2022-07-26T02:17:00.702Z,98846.63
2022-07-26T02:19:29.359Z,98853.28
2022-07-26T02:21:58.001Z,98857.22
2022-07-26T02:24:28.635Z,98852.00
2022-07-26T02:26:56.933Z,98862.34
2022-07-26T02:29:46.447Z,98870.06
2022-07-26T02:32:14.571Z,98862.59
2022-07-26T02:34:42.424Z,98868.25
2022-07-26T02:37:10.244Z,98869.78
2022-07-26T02:39:38.053Z,98866.19
2022-07-26T02:42:06.154Z,98867.94
2022-07-26T02:44:36.646Z,98875.44
2022-07-26T02:47:04.314Z,98872.34
2022-07-26T02:49:32.172Z,98868.84
2022-07-26T02:51:59.967Z,98865.31
2022-07-26T02:54:27.912Z,98859.25
2022-07-26T02:56:55.742Z,98857.72
2022-07-26T02:59:23.633Z,98861.03
2022-07-26T03:01:52.797Z,98865.38
2022-07-26T03:04:20.887Z,98864.81
2022-07-26T03:06:48.678Z,98856.03
2022-07-26T03:09:16.745Z,98859.66
2022-07-26T03:11:44.664Z,98860.88
2022-07-26T03:14:12.475Z,98860.53
2022-07-26T03:16:40.331Z,98854.13
2022-07-26T03:19:09.514Z,98863.97
2022-07-26T03:21:37.311Z,98861.47
2022-07-26T03:24:06.124Z,98855.69
2022-07-26T03:26:34.247Z,98862.34
2022-07-26T03:29:02.028Z,98854.13
2022-07-26T03:31:30.081Z,98860.06
2022-07-26T03:34:03.002Z,98847.06
2022-07-26T03:36:32.887Z,98857.06
2022-07-26T03:39:00.678Z,98847.03
2022-07-26T03:41:31.601Z,98836.25
2022-07-26T03:43:59.453Z,98840.19
2022-07-26T03:46:27.773Z,98840.94
2022-07-26T03:48:56.145Z,98844.16
2022-07-26T03:51:24.125Z,98838.22
2022-07-26T03:53:53.340Z,98847.16
2022-07-26T03:56:28.932Z,98845.53
2022-07-26T03:58:57.113Z,98843.75
2022-07-26T04:01:24.985Z,98845.56
2022-07-26T04:03:53.183Z,98852.63
2022-07-26T04:06:23.255Z,98853.81
2022-07-26T04:08:51.067Z,98860.25
2022-07-26T04:11:20.507Z,98863.63
2022-07-26T04:13:48.397Z,98866.00
2022-07-26T04:16:16.211Z,98879.91
2022-07-26T04:18:44.058Z,98872.00
2022-07-26T04:21:11.931Z,98874.47
2022-07-26T04:23:39.693Z,98870.47
2022-07-26T04:26:07.603Z,98877.25
2022-07-26T04:28:36.914Z,98874.03
2022-07-26T04:31:04.812Z,98882.91
2022-07-26T04:33:33.050Z,98889.34
2022-07-26T04:36:01.106Z,98886.59
2022-07-26T04:38:28.927Z,98896.56
2022-07-26T04:40:58.050Z,98893.97
2022-07-26T04:43:26.675Z,98889.72
2022-07-26T04:45:57.622Z,98881.84
2022-07-26T04:48:26.206Z,98886.38
2022-07-26T04:50:54.727Z,98886.50
2022-07-26T04:53:22.593Z,98888.28
2022-07-26T04:55:50.404Z,98896.59
2022-07-26T04:58:19.213Z,98901.00
2022-07-26T05:01:08.914Z,98902.91
2022-07-26T05:03:37.507Z,98899.47
2022-07-26T05:06:05.745Z,98904.94
2022-07-26T05:08:33.749Z,98913.28
2022-07-26T05:11:01.628Z,98913.16
2022-07-26T05:13:30.330Z,98912.84
2022-07-26T05:15:59.001Z,98920.00
2022-07-26T05:18:27.554Z,98913.78
2022-07-26T05:20:59.472Z,98918.59
2022-07-26T05:23:27.821Z,98924.63
2022-07-26T05:25:56.385Z,98921.56
2022-07-26T05:28:24.232Z,98929.88
2022-07-26T05:30:52.326Z,98921.00
2022-07-26T05:33:20.654Z,98920.28
2022-07-26T05:35:48.584Z,98923.53
2022-07-26T05:38:17.733Z,98924.22
2022-07-26T05:40:50.291Z,98924.38
2022-07-26T05:43:19.017Z,98919.16
2022-07-26T05:45:46.970Z,98909.75
2022-07-26T05:48:14.957Z,98913.88
2022-07-26T05:50:42.870Z,98920.47
2022-07-26T05:53:10.645Z,98922.06
2022-07-26T05:55:40.021Z,98921.25
2022-07-26T05:58:07.922Z,98921.50
2022-07-26T06:00:36.077Z,98919.69
2022-07-26T06:03:22.036Z,98918.47
2022-07-26T06:05:50.641Z,98921.53
2022-07-26T06:08:19.472Z,98928.22
2022-07-26T06:10:49.341Z,98925.72
2022-07-26T06:13:17.739Z,98928.38
2022-07-26T06:15:45.638Z,98913.63
2022-07-26T06:18:13.771Z,98917.06
2022-07-26T06:20:42.345Z,98927.94
2022-07-26T06:23:10.673Z,98931.09
2022-07-26T06:25:38.810Z,98926.94
2022-07-26T06:28:10.443Z,98933.03
2022-07-26T06:30:39.149Z,98936.34
2022-07-26T06:33:07.737Z,98936.66
2022-07-26T06:35:36.150Z,98933.91
2022-07-26T06:38:04.876Z,98929.22
2022-07-26T06:40:34.047Z,98926.94
2022-07-26T06:43:04.542Z,98929.31
2022-07-26T06:45:35.435Z,98924.66
2022-07-26T06:48:03.470Z,98926.19
2022-07-26T06:50:31.664Z,98924.91
2022-07-26T06:53:00.002Z,98926.00
2022-07-26T06:55:28.262Z,98916.69
2022-07-26T06:57:56.488Z,98915.13
2022-07-26T07:00:24.874Z,98920.56
2022-07-26T07:02:54.620Z,98919.50
2022-07-26T07:05:23.229Z,98929.06
2022-07-26T07:07:51.621Z,98924.94
2022-07-26T07:10:20.548Z,98925.16
2022-07-26T07:12:52.042Z,98924.00
2022-07-26T07:15:20.415Z,98924.75
2022-07-26T07:17:49.853Z,98923.13
2022-07-26T07:20:19.728Z,98917.72
2022-07-26T07:22:48.009Z,98920.78
2022-07-26T07:25:16.544Z,98912.56
2022-07-26T07:27:45.014Z,98923.03
2022-07-26T07:30:17.192Z,98918.50
2022-07-26T07:32:45.986Z,98926.16
2022-07-26T07:35:14.538Z,98924.09
2022-07-26T07:37:53.634Z,98913.81
2022-07-26T07:40:23.402Z,98921.59
2022-07-26T07:45:25.796Z,98921.75
2022-07-26T07:47:54.254Z,98915.78
2022-07-26T07:50:22.739Z,98913.38
2022-07-26T07:52:55.606Z,98924.13
2022-07-26T07:55:44.050Z,98911.22
2022-07-26T07:58:15.788Z,98915.81
2022-07-26T08:00:48.069Z,98913.22
2022-07-26T08:03:18.624Z,98920.53
2022-07-26T08:05:50.656Z,98910.94
2022-07-26T08:08:22.063Z,98909.16
2022-07-26T08:10:53.238Z,98909.53
2022-07-26T08:13:22.828Z,98903.88
2022-07-26T08:15:54.099Z,98904.31
2022-07-26T08:18:25.676Z,98910.53
2022-07-26T08:20:55.065Z,98901.66
2022-07-26T08:23:23.808Z,98922.75
2022-07-26T08:25:57.327Z,98913.31
2022-07-26T08:31:19.414Z,98923.84
2022-07-26T08:33:47.885Z,98909.75
2022-07-26T08:36:17.036Z,98921.28
2022-07-26T08:38:47.560Z,98921.34
2022-07-26T08:41:16.963Z,98919.38
2022-07-26T08:43:51.364Z,98919.59
2022-07-26T08:46:26.921Z,98916.97
2022-07-26T08:48:56.370Z,98911.41
2022-07-26T08:51:26.751Z,98912.34
2022-07-26T08:53:56.058Z,98917.88
2022-07-26T08:56:26.394Z,98912.53
2022-07-26T08:58:54.858Z,98920.88
2022-07-26T09:01:24.452Z,98919.69
2022-07-26T09:03:52.941Z,98913.84
2022-07-26T09:06:28.337Z,98911.69
2022-07-26T09:09:12.660Z,98922.41
2022-07-26T09:11:40.847Z,98926.22
2022-07-26T09:14:09.316Z,98923.81
2022-07-26T09:16:40.250Z,98919.09
2022-07-26T09:19:22.761Z,98914.63
2022-07-26T09:21:51.376Z,98913.91
2022-07-26T09:24:31.945Z,98908.50
2022-07-26T09:27:01.461Z,98925.56
2022-07-26T09:29:32.565Z,98919.25
2022-07-26T09:32:19.756Z,98918.66
2022-07-26T09:34:53.405Z,98922.47
2022-07-26T09:37:35.046Z,98915.59
2022-07-26T09:40:06.416Z,98923.13
2022-07-26T09:42:34.529Z,98916.03
2022-07-26T09:45:03.491Z,98916.19
2022-07-26T09:47:40.965Z,98918.84
2022-07-26T09:50:14.838Z,98929.56
2022-07-26T09:53:02.666Z,98931.41
2022-07-26T09:55:42.439Z,98926.97
2022-07-26T09:58:14.093Z,98924.53
2022-07-26T10:00:43.576Z,98920.50
2022-07-26T10:03:13.427Z,98934.25
2022-07-26T10:05:42.148Z,98942.09
2022-07-26T10:08:10.980Z,98931.97
2022-07-26T10:10:44.775Z,98941.56
2022-07-26T10:13:13.296Z,98949.69
2022-07-26T10:15:44.516Z,98944.03
2022-07-26T10:18:47.511Z,98933.53
2022-07-26T10:21:25.375Z,98929.41
2022-07-26T10:23:56.970Z,98942.00
2022-07-26T10:26:43.260Z,98934.56
2022-07-26T10:29:29.490Z,98936.81
2022-07-26T10:32:20.712Z,98944.25
2022-07-26T10:34:50.221Z,98939.03
2022-07-26T10:37:27.559Z,98939.22
2022-07-26T10:40:19.165Z,98939.47
2022-07-26T10:42:47.342Z,98937.69
2022-07-26T10:45:21.377Z,98949.13
2022-07-26T10:48:12.384Z,98942.63
2022-07-26T10:50:42.951Z,98957.31
2022-07-26T10:53:17.801Z,98955.25
2022-07-26T10:55:47.482Z,98946.34
2022-07-26T10:58:15.622Z,98945.53
2022-07-26T11:00:55.728Z,98951.44
2022-07-26T11:03:24.075Z,98959.69
2022-07-26T11:05:53.353Z,98956.72
2022-07-26T11:08:21.192Z,98960.66
2022-07-26T11:10:49.131Z,98955.03
2022-07-26T11:13:19.295Z,98955.50
2022-07-26T11:15:49.009Z,98950.69
2022-07-26T11:18:23.350Z,98953.59
2022-07-26T11:20:55.422Z,98949.84
2022-07-26T11:23:37.442Z,98961.78
2022-07-26T11:26:10.851Z,98957.13
2022-07-26T11:28:59.221Z,98953.72
2022-07-26T11:31:50.604Z,98952.97
2022-07-26T11:34:25.167Z,98962.66
2022-07-26T11:36:56.365Z,98953.84
2022-07-26T11:39:26.318Z,98948.81
2022-07-26T11:41:58.839Z,98949.13
2022-07-26T11:44:28.884Z,98944.75
2022-07-26T11:46:57.979Z,98956.28
2022-07-26T11:49:52.382Z,98953.88
2022-07-26T11:52:24.944Z,98953.25
2022-07-26T11:54:54.537Z,98949.50
2022-07-26T11:57:22.830Z,98962.44
2022-07-26T11:59:51.529Z,98943.00
2022-07-26T12:02:22.381Z,98963.28
2022-07-26T12:04:50.417Z,98954.25
2022-07-26T12:07:21.515Z,98950.59
2022-07-26T12:09:51.390Z,98954.19
2022-07-26T12:12:24.278Z,98953.25
2022-07-26T12:14:59.775Z,98949.22
2022-07-26T12:17:34.923Z,98954.94
2022-07-26T12:20:13.847Z,98953.75
2022-07-26T12:22:54.432Z,98940.69
2022-07-26T12:25:26.922Z,98939.56
2022-07-26T12:27:54.945Z,98946.81
2022-07-26T12:30:23.087Z,98954.72
2022-07-26T12:32:52.086Z,98950.50
2022-07-26T12:35:32.106Z,98944.31
2022-07-26T12:38:01.414Z,98941.25
2022-07-26T12:40:30.981Z,98933.97
2022-07-26T12:43:02.013Z,98935.00
2022-07-26T12:45:31.653Z,98926.72
2022-07-26T12:48:00.750Z,98933.72
2022-07-26T12:50:31.376Z,98924.72
2022-07-26T12:53:03.629Z,98935.03
2022-07-26T12:55:32.049Z,98925.72
2022-07-26T12:58:00.750Z,98925.66
2022-07-26T13:00:30.143Z,98922.44
2022-07-26T13:02:58.461Z,98917.41
2022-07-26T13:05:27.048Z,98922.13
2022-07-26T13:07:55.555Z,98929.97
2022-07-26T13:10:34.063Z,98922.44
2022-07-26T13:13:03.682Z,98912.69
2022-07-26T13:15:36.114Z,98912.94
2022-07-26T13:18:07.270Z,98909.34
2022-07-26T13:20:37.011Z,98915.47
2022-07-26T13:23:04.869Z,98907.03
2022-07-26T13:25:38.279Z,98914.81
2022-07-26T13:28:08.439Z,98911.44
2022-07-26T13:30:38.231Z,98908.66
2022-07-26T13:33:06.356Z,98910.63
2022-07-26T13:35:34.142Z,98916.75
2022-07-26T13:38:01.958Z,98906.22
2022-07-26T13:40:31.730Z,98908.25
2022-07-26T13:43:01.294Z,98906.19
2022-07-26T13:45:29.756Z,98913.53
2022-07-26T13:47:58.841Z,98916.66
2022-07-26T13:50:27.622Z,98913.53
2022-07-26T13:52:56.227Z,98913.09
2022-07-26T13:55:24.594Z,98917.03
2022-07-26T13:57:55.591Z,98911.31
2022-07-26T14:00:28.701Z,98910.47
2022-07-26T14:02:59.464Z,98903.53
2022-07-26T14:05:29.322Z,98891.25
2022-07-26T14:07:57.298Z,98894.88
2022-07-26T14:10:25.728Z,98904.69
2022-07-26T14:12:53.863Z,98902.53
2022-07-26T14:15:23.303Z,98900.63
2022-07-26T14:17:53.012Z,98906.75
2022-07-26T14:20:21.044Z,98909.41
2022-07-26T14:22:49.325Z,98908.34
2022-07-26T14:25:17.464Z,98905.38
2022-07-26T14:27:45.232Z,98907.41
2022-07-26T14:30:14.295Z,98902.69
2022-07-26T14:32:42.422Z,98906.75
2022-07-26T14:35:13.579Z,98907.78
2022-07-26T14:37:44.701Z,98917.38
2022-07-26T14:40:15.240Z,98918.13
2022-07-26T14:42:43.145Z,98912.31
2022-07-26T14:45:12.247Z,98909.53
2022-07-26T14:47:40.160Z,98904.56
2022-07-26T14:50:09.331Z,98911.53
2022-07-26T14:52:40.130Z,98909.25
2022-07-26T14:55:09.432Z,98909.25
2022-07-26T14:57:39.442Z,98908.00
2022-07-26T15:00:10.107Z,98907.50
2022-07-26T15:02:39.788Z,98912.03
2022-07-26T15:05:08.286Z,98911.38
2022-07-26T15:07:36.165Z,98913.75
2022-07-26T15:10:07.122Z,98914.91
2022-07-26T15:12:35.084Z,98914.50
2022-07-26T15:15:03.055Z,98918.13
2022-07-26T15:17:31.132Z,98907.25
2022-07-26T15:19:59.131Z,98909.66
2022-07-26T15:22:26.976Z,98910.00
2022-07-26T15:24:54.833Z,98914.69
2022-07-26T15:27:24.058Z,98918.94
2022-07-26T15:29:51.903Z,98914.38
2022-07-26T15:32:21.579Z,98911.88
2022-07-26T15:34:49.554Z,98905.13
2022-07-26T15:37:17.533Z,98905.03
2022-07-26T15:39:45.717Z,98910.03
2022-07-26T15:42:15.261Z,98913.84
2022-07-26T15:44:44.501Z,98907.09
2022-07-26T15:47:15.442Z,98917.81
2022-07-26T15:49:58.689Z,98915.81
2022-07-26T15:52:26.706Z,98913.38
2022-07-26T15:54:54.441Z,98917.31
2022-07-26T15:57:22.236Z,98916.22
2022-07-26T15:59:51.350Z,98911.38
2022-07-26T16:02:19.534Z,98912.50
2022-07-26T16:04:47.387Z,98909.91
2022-07-26T16:07:16.614Z,98903.97
2022-07-26T16:09:44.771Z,98908.94
2022-07-26T16:12:12.562Z,98913.66
2022-07-26T16:14:40.367Z,98904.88
2022-07-26T16:17:09.665Z,98899.44
2022-07-26T16:19:37.435Z,98897.97
2022-07-26T16:22:05.566Z,98901.16
2022-07-26T16:24:33.939Z,98897.56
2022-07-26T16:27:01.870Z,98896.72
2022-07-26T16:29:29.759Z,98899.56
2022-07-26T16:31:57.759Z,98904.88
2022-07-26T16:34:27.427Z,98901.28
2022-07-26T16:36:55.223Z,98903.78
2022-07-26T16:39:22.999Z,98892.50
2022-07-26T16:41:50.796Z,98898.00
2022-07-26T16:44:18.622Z,98895.81
2022-07-26T16:46:46.898Z,98897.25
2022-07-26T16:49:15.279Z,98893.97
2022-07-26T16:51:44.743Z,98895.84
2022-07-26T16:54:12.532Z,98894.75
2022-07-26T16:56:40.432Z,98897.28
2022-07-26T16:59:10.511Z,98897.06
2022-07-26T17:01:38.941Z,98901.06
2022-07-26T17:04:07.085Z,98893.34
2022-07-26T17:06:35.827Z,98897.19
2022-07-26T17:09:05.195Z,98896.78
2022-07-26T17:11:36.140Z,98894.50
2022-07-26T17:14:04.032Z,98895.84
2022-07-26T17:16:33.119Z,98895.78
2022-07-26T17:19:01.175Z,98895.75
2022-07-26T17:21:29.010Z,98889.69
2022-07-26T17:23:56.821Z,98895.00
2022-07-26T17:26:25.989Z,98891.94
2022-07-26T17:28:53.795Z,98893.91
2022-07-26T17:31:21.601Z,98896.50
2022-07-26T17:33:50.489Z,98892.94
2022-07-26T17:36:27.345Z,98896.16
2022-07-26T17:38:57.515Z,98905.66
2022-07-26T17:41:32.588Z,98892.28
2022-07-26T17:44:02.851Z,98898.06
2022-07-26T17:46:32.488Z,98903.59
2022-07-26T17:49:00.825Z,98905.19
2022-07-26T17:51:28.676Z,98903.69
2022-07-26T17:53:56.475Z,98903.38
2022-07-26T17:56:24.229Z,98914.47
2022-07-26T17:58:53.401Z,98906.66
2022-07-26T18:01:21.302Z,98903.13
2022-07-26T18:03:49.784Z,98902.22
2022-07-26T18:06:18.559Z,98915.19
2022-07-26T18:08:46.467Z,98911.34
2022-07-26T18:11:14.651Z,98909.75
2022-07-26T18:13:42.403Z,98909.19
2022-07-26T18:16:12.896Z,98910.34
2022-07-26T18:18:40.983Z,98912.69
2022-07-26T18:21:09.029Z,98911.75
2022-07-26T18:23:36.970Z,98906.78
2022-07-26T18:26:05.181Z,98905.03
2022-07-26T18:28:33.209Z,98910.19
2022-07-26T18:31:01.100Z,98910.75
2022-07-26T18:33:31.729Z,98912.28
2022-07-26T18:36:00.999Z,98915.84
2022-07-26T18:38:29.038Z,98908.75
2022-07-26T18:40:57.303Z,98908.03
2022-07-26T18:43:25.091Z,98912.25
2022-07-26T18:45:53.364Z,98914.66
2022-07-26T18:48:21.349Z,98901.84
2022-07-26T18:50:53.486Z,98914.38
2022-07-26T18:53:21.539Z,98920.59
2022-07-26T18:55:49.670Z,98921.69
2022-07-26T18:58:18.336Z,98919.59
2022-07-26T19:00:49.872Z,98918.00
2022-07-26T19:03:19.639Z,98918.03
2022-07-26T19:05:47.521Z,98933.25
2022-07-26T19:08:16.943Z,98931.22
2022-07-26T19:10:45.020Z,98931.25
2022-07-26T19:13:12.994Z,98935.22
2022-07-26T19:15:41.113Z,98933.69
2022-07-26T19:18:11.108Z,98934.72
2022-07-26T19:20:39.007Z,98945.44
2022-07-26T19:23:06.920Z,98942.31
2022-07-26T19:25:36.034Z,98945.94
2022-07-26T19:28:05.972Z,98950.69
2022-07-26T19:30:36.802Z,98948.97
2022-07-26T19:33:04.953Z,98948.22
2022-07-26T19:35:32.910Z,98954.47
2022-07-26T19:38:00.696Z,98955.50
2022-07-26T19:40:30.287Z,98958.84
2022-07-26T19:42:59.405Z,98959.06
2022-07-26T19:45:27.219Z,98952.56
2022-07-26T19:50:23.826Z,98961.63
2022-07-26T19:52:51.645Z,98959.00
2022-07-26T19:55:19.561Z,98968.03
2022-07-26T19:57:47.327Z,98964.16
2022-07-26T20:00:17.957Z,98960.53
2022-07-26T20:02:46.214Z,98971.13
2022-07-26T20:05:14.171Z,98978.56
2022-07-26T20:07:43.310Z,98981.94
2022-07-26T20:10:11.591Z,98981.13
2022-07-26T20:12:39.548Z,98986.03
2022-07-26T20:15:08.260Z,98986.56
2022-07-26T20:17:39.741Z,98981.78
2022-07-26T20:20:08.917Z,98984.28
2022-07-26T20:22:37.045Z,98987.34
2022-07-26T20:25:05.956Z,98988.31
2022-07-26T20:27:33.883Z,98990.09
2022-07-26T20:30:03.408Z,98993.41
2022-07-26T20:32:31.201Z,98993.91
2022-07-26T20:35:00.354Z,98995.84
2022-07-26T20:37:28.127Z,98990.06
2022-07-26T20:39:55.930Z,98991.31
2022-07-26T20:42:24.455Z,98984.88
2022-07-26T20:44:53.571Z,99000.28
2022-07-26T20:47:22.410Z,99003.69
2022-07-26T20:49:50.252Z,99010.19
2022-07-26T20:52:19.542Z,99011.09
2022-07-26T20:54:47.346Z,99016.72
2022-07-26T20:57:15.142Z,99015.97
2022-07-26T20:59:42.980Z,99016.03
2022-07-26T21:02:10.942Z,99018.13
2022-07-26T21:04:38.820Z,99008.31
2022-07-26T21:07:06.628Z,99009.47
2022-07-26T21:09:35.781Z,99004.47
2022-07-26T21:12:03.831Z,99015.53
2022-07-26T21:14:31.703Z,99017.06
2022-07-26T21:16:59.665Z,99022.75
2022-07-26T21:19:27.587Z,99027.13
2022-07-26T21:21:56.953Z,99016.09
2022-07-26T21:24:24.890Z,99021.69
2022-07-26T21:26:55.225Z,99025.84
2022-07-26T21:29:23.562Z,99021.72
2022-07-26T21:31:51.423Z,99022.50
2022-07-26T21:34:19.593Z,99020.56
2022-07-26T21:36:47.472Z,99012.34
2022-07-26T21:39:15.308Z,99016.31
2022-07-26T21:41:43.129Z,99011.44
2022-07-26T21:44:12.503Z,99011.56
2022-07-26T21:46:40.407Z,99021.72
2022-07-26T21:49:08.571Z,99022.88
2022-07-26T21:51:36.665Z,99020.09
2022-07-26T21:54:04.755Z,99026.56
2022-07-26T21:56:32.505Z,99022.13
2022-07-26T21:59:01.028Z,99015.41
2022-07-26T22:01:30.209Z,99029.72
2022-07-26T22:03:58.055Z,99024.50
2022-07-26T22:06:26.000Z,99021.25
2022-07-26T22:08:53.800Z,99020.00
2022-07-26T22:11:21.810Z,99019.63
2022-07-26T22:13:49.619Z,99019.41
2022-07-26T22:16:17.532Z,99017.16
2022-07-26T22:18:46.768Z,99023.44
2022-07-26T22:21:14.896Z,99025.25
2022-07-26T22:23:42.777Z,99033.03
2022-07-26T22:26:10.889Z,99035.13
2022-07-26T22:28:39.024Z,99032.22
2022-07-26T22:31:06.791Z,99029.59
2022-07-26T22:33:34.588Z,99028.41
2022-07-26T22:36:03.782Z,99027.47
2022-07-26T22:38:31.544Z,99010.13
2022-07-26T22:40:59.863Z,99015.38
2022-07-26T22:43:27.715Z,99020.75
2022-07-26T22:45:55.601Z,99021.56
2022-07-26T22:48:24.212Z,99023.13
2022-07-26T22:50:52.175Z,99017.03
2022-07-26T22:53:21.401Z,99010.81
2022-07-26T22:55:49.244Z,99011.69
2022-07-26T22:58:16.988Z,99005.84
2022-07-26T23:00:45.053Z,99001.69
2022-07-26T23:03:20.018Z,99007.19
2022-07-26T23:05:50.031Z,99003.53
2022-07-26T23:11:07.771Z,99006.84
2022-07-26T23:13:35.691Z,99016.13
2022-07-26T23:16:03.616Z,99022.41
2022-07-26T23:18:32.397Z,99013.63
2022-07-26T23:21:00.297Z,99012.84
2022-07-26T23:23:29.762Z,99016.69
2022-07-26T23:25:59.512Z,99017.38
2022-07-26T23:28:37.666Z,99021.44
2022-07-26T23:31:10.804Z,99017.16
2022-07-26T23:33:51.539Z,99016.69
2022-07-26T23:36:26.343Z,99012.28
2022-07-26T23:38:54.769Z,99012.03
2022-07-26T23:41:22.893Z,99013.88
2022-07-26T23:43:52.441Z,99011.63
2022-07-26T23:46:20.270Z,99014.84
2022-07-26T23:48:48.280Z,99014.19
2022-07-26T23:51:16.181Z,99015.84
2022-07-26T23:53:44.047Z,99007.75
2022-07-26T23:56:11.986Z,99009.41
2022-07-26T23:58:39.878Z,99006.38
